sensor_id;sensor_type;location;lat;lon;timestamp;pressure;altitude;pressure_sealevel;temperature;humidity
46506;BME280;32220;49.808;9.968;2023-04-27T00:02:10;99102.44;;;6.69;49.52
46506;BME280;32220;49.808;9.968;2023-04-27T00:04:38;99096.31;;;6.69;50.03
46506;BME280;32220;49.808;9.968;2023-04-27T00:07:06;99097.22;;;6.68;49.93
46506;BME280;32220;49.808;9.968;2023-04-27T00:09:34;99093.78;;;6.67;49.76
46506;BME280;32220;49.808;9.968;2023-04-27T00:12:01;99095.59;;;6.65;50.06
46506;BME280;32220;49.808;9.968;2023-04-27T00:14:29;99093.91;;;6.64;50.26
46506;BME280;32220;49.808;9.968;2023-04-27T00:16:58;99078.63;;;6.52;50.13
46506;BME280;32220;49.808;9.968;2023-04-27T00:19:26;99085.31;;;6.59;50.25
46506;BME280;32220;49.808;9.968;2023-04-27T00:21:55;99092.44;;;6.57;50.48
46506;BME280;32220;49.808;9.968;2023-04-27T00:24:25;99083.78;;;6.55;50.68
46506;BME280;32220;49.808;9.968;2023-04-27T00:26:52;99041.19;;;6.25;50.44
46506;BME280;32220;49.808;9.968;2023-04-27T00:29:20;99082.13;;;6.53;50.65
46506;BME280;32220;49.808;9.968;2023-04-27T00:31:47;99067.31;;;6.50;50.86
46506;BME280;32220;49.808;9.968;2023-04-27T00:34:17;99068.34;;;6.46;51.03
46506;BME280;32220;49.808;9.968;2023-04-27T00:36:47;99070.97;;;6.46;51.00
46506;BME280;32220;49.808;9.968;2023-04-27T00:39:15;99079.72;;;6.46;51.06
46506;BME280;32220;49.808;9.968;2023-04-27T00:41:43;99068.22;;;6.49;50.97
46506;BME280;32220;49.808;9.968;2023-04-27T00:44:11;99075.09;;;6.53;51.18
46506;BME280;32220;49.808;9.968;2023-04-27T00:46:39;99067.81;;;6.58;51.91
46506;BME280;32220;49.808;9.968;2023-04-27T00:49:07;99069.41;;;6.62;51.57
46506;BME280;32220;49.808;9.968;2023-04-27T00:51:36;99072.56;;;6.70;51.27
46506;BME280;32220;49.808;9.968;2023-04-27T00:54:03;99075.84;;;6.75;51.10
46506;BME280;32220;49.808;9.968;2023-04-27T00:56:31;99074.03;;;6.77;51.27
46506;BME280;32220;49.808;9.968;2023-04-27T00:58:59;99048.31;;;6.64;51.43
46506;BME280;32220;49.808;9.968;2023-04-27T01:01:28;99066.06;;;6.79;52.20
46506;BME280;32220;49.808;9.968;2023-04-27T01:03:56;99071.41;;;6.77;52.17
46506;BME280;32220;49.808;9.968;2023-04-27T01:06:24;99069.88;;;6.72;52.00
46506;BME280;32220;49.808;9.968;2023-04-27T01:08:54;99071.66;;;6.71;51.74
46506;BME280;32220;49.808;9.968;2023-04-27T01:11:22;99067.44;;;6.67;52.09
46506;BME280;32220;49.808;9.968;2023-04-27T01:13:50;99054.72;;;6.57;52.26
46506;BME280;32220;49.808;9.968;2023-04-27T01:16:18;99060.09;;;6.55;52.06
46506;BME280;32220;49.808;9.968;2023-04-27T01:18:46;99044.03;;;6.41;52.29
46506;BME280;32220;49.808;9.968;2023-04-27T01:21:14;99076.63;;;6.57;52.51
46506;BME280;32220;49.808;9.968;2023-04-27T01:23:43;99078.56;;;6.54;52.06
46506;BME280;32220;49.808;9.968;2023-04-27T01:26:11;99067.31;;;6.50;52.23
46506;BME280;32220;49.808;9.968;2023-04-27T01:28:41;99076.19;;;6.47;52.51
46506;BME280;32220;49.808;9.968;2023-04-27T01:31:09;99080.66;;;6.45;52.40
46506;BME280;32220;49.808;9.968;2023-04-27T01:33:37;99079.94;;;6.42;52.55
46506;BME280;32220;49.808;9.968;2023-04-27T01:36:06;99079.16;;;6.40;52.76
46506;BME280;32220;49.808;9.968;2023-04-27T01:38:35;99073.28;;;6.33;52.82
46506;BME280;32220;49.808;9.968;2023-04-27T01:41:04;99074.94;;;6.36;52.80
46506;BME280;32220;49.808;9.968;2023-04-27T01:43:35;99072.41;;;6.33;52.87
46506;BME280;32220;49.808;9.968;2023-04-27T01:46:07;99076.13;;;6.29;52.92
46506;BME280;32220;49.808;9.968;2023-04-27T01:48:36;99049.66;;;6.11;53.15
46506;BME280;32220;49.808;9.968;2023-04-27T01:51:04;99062.69;;;6.15;53.32
46506;BME280;32220;49.808;9.968;2023-04-27T01:53:32;99062.75;;;6.13;53.05
46506;BME280;32220;49.808;9.968;2023-04-27T01:56:00;99074.16;;;6.12;53.06
46506;BME280;32220;49.808;9.968;2023-04-27T01:58:30;99086.22;;;6.18;53.33
46506;BME280;32220;49.808;9.968;2023-04-27T02:00:57;99052.66;;;6.02;53.36
46506;BME280;32220;49.808;9.968;2023-04-27T02:03:25;99062.56;;;6.18;55.38
46506;BME280;32220;49.808;9.968;2023-04-27T02:05:53;99060.69;;;6.20;56.72
46506;BME280;32220;49.808;9.968;2023-04-27T02:08:20;99057.16;;;6.21;57.04
46506;BME280;32220;49.808;9.968;2023-04-27T02:10:48;99064.91;;;6.24;55.91
46506;BME280;32220;49.808;9.968;2023-04-27T02:13:16;99066.63;;;6.25;55.71
46506;BME280;32220;49.808;9.968;2023-04-27T02:15:46;99063.47;;;6.17;55.31
46506;BME280;32220;49.808;9.968;2023-04-27T02:18:14;99074.63;;;6.22;55.62
46506;BME280;32220;49.808;9.968;2023-04-27T02:20:42;99063.53;;;6.15;55.29
46506;BME280;32220;49.808;9.968;2023-04-27T02:23:10;99064.63;;;6.09;55.09
46506;BME280;32220;49.808;9.968;2023-04-27T02:25:38;99076.75;;;6.13;55.08
46506;BME280;32220;49.808;9.968;2023-04-27T02:28:08;99073.59;;;6.05;55.00
46506;BME280;32220;49.808;9.968;2023-04-27T02:30:37;99088.28;;;6.09;54.97
46506;BME280;32220;49.808;9.968;2023-04-27T02:33:06;99085.00;;;6.04;55.17
46506;BME280;32220;49.808;9.968;2023-04-27T02:35:34;99083.94;;;6.08;55.59
46506;BME280;32220;49.808;9.968;2023-04-27T02:38:02;99080.72;;;6.02;55.45
46506;BME280;32220;49.808;9.968;2023-04-27T02:40:29;99084.09;;;6.05;55.62
46506;BME280;32220;49.808;9.968;2023-04-27T02:42:57;99087.56;;;6.06;55.51
46506;BME280;32220;49.808;9.968;2023-04-27T02:45:24;99065.41;;;5.91;55.37
46506;BME280;32220;49.808;9.968;2023-04-27T02:47:53;99092.09;;;6.02;55.18
46506;BME280;32220;49.808;9.968;2023-04-27T02:50:22;99080.25;;;5.92;55.01
46506;BME280;32220;49.808;9.968;2023-04-27T02:52:50;99099.13;;;6.02;55.21
46506;BME280;32220;49.808;9.968;2023-04-27T02:55:18;99107.06;;;6.00;55.37
46506;BME280;32220;49.808;9.968;2023-04-27T02:57:46;99102.72;;;5.99;55.06
46506;BME280;32220;49.808;9.968;2023-04-27T03:00:15;99102.84;;;5.96;55.00
46506;BME280;32220;49.808;9.968;2023-04-27T03:02:42;99107.44;;;5.91;55.15
46506;BME280;32220;49.808;9.968;2023-04-27T03:05:10;99107.63;;;5.85;55.24
46506;BME280;32220;49.808;9.968;2023-04-27T03:07:39;99106.97;;;5.80;55.28
46506;BME280;32220;49.808;9.968;2023-04-27T03:10:08;99105.38;;;5.76;55.67
46506;BME280;32220;49.808;9.968;2023-04-27T03:12:36;99103.63;;;5.76;55.97
46506;BME280;32220;49.808;9.968;2023-04-27T03:15:04;99091.75;;;5.66;55.60
46506;BME280;32220;49.808;9.968;2023-04-27T03:17:35;99112.25;;;5.80;55.61
46506;BME280;32220;49.808;9.968;2023-04-27T03:20:04;99115.78;;;5.79;55.54
46506;BME280;32220;49.808;9.968;2023-04-27T03:22:34;99123.34;;;5.88;55.54
46506;BME280;32220;49.808;9.968;2023-04-27T03:25:04;99121.44;;;5.92;55.35
46506;BME280;32220;49.808;9.968;2023-04-27T03:27:33;99101.41;;;5.88;55.31
46506;BME280;32220;49.808;9.968;2023-04-27T03:30:00;99112.44;;;5.97;55.25
46506;BME280;32220;49.808;9.968;2023-04-27T03:32:29;99115.75;;;6.02;55.42
46506;BME280;32220;49.808;9.968;2023-04-27T03:34:57;99106.91;;;6.05;55.41
46506;BME280;32220;49.808;9.968;2023-04-27T03:37:25;99117.31;;;6.06;55.41
46506;BME280;32220;49.808;9.968;2023-04-27T03:39:53;99112.94;;;6.07;55.35
46506;BME280;32220;49.808;9.968;2023-04-27T03:42:22;99118.19;;;6.07;55.30
46506;BME280;32220;49.808;9.968;2023-04-27T03:44:50;99110.50;;;6.02;55.76
46506;BME280;32220;49.808;9.968;2023-04-27T03:47:18;99120.91;;;6.05;55.60
46506;BME280;32220;49.808;9.968;2023-04-27T03:49:46;99107.94;;;6.01;55.86
46506;BME280;32220;49.808;9.968;2023-04-27T03:52:14;99115.06;;;5.97;55.82
46506;BME280;32220;49.808;9.968;2023-04-27T03:54:41;99117.97;;;5.91;55.84
46506;BME280;32220;49.808;9.968;2023-04-27T03:57:11;99105.13;;;5.82;55.91
46506;BME280;32220;49.808;9.968;2023-04-27T03:59:40;99103.50;;;5.80;55.97
46506;BME280;32220;49.808;9.968;2023-04-27T04:02:08;99109.84;;;5.74;56.43
46506;BME280;32220;49.808;9.968;2023-04-27T04:04:36;99109.16;;;5.69;56.62
46506;BME280;32220;49.808;9.968;2023-04-27T04:07:04;99112.88;;;5.63;56.62
46506;BME280;32220;49.808;9.968;2023-04-27T04:09:32;99110.41;;;5.59;56.41
46506;BME280;32220;49.808;9.968;2023-04-27T04:12:00;99107.94;;;5.56;56.73
46506;BME280;32220;49.808;9.968;2023-04-27T04:14:28;99120.31;;;5.52;56.68
46506;BME280;32220;49.808;9.968;2023-04-27T04:16:58;99114.22;;;5.52;56.74
46506;BME280;32220;49.808;9.968;2023-04-27T04:19:25;99118.44;;;5.56;57.07
46506;BME280;32220;49.808;9.968;2023-04-27T04:21:53;99108.69;;;5.58;56.98
46506;BME280;32220;49.808;9.968;2023-04-27T04:24:23;99094.81;;;5.56;56.99
46506;BME280;32220;49.808;9.968;2023-04-27T04:26:51;99104.19;;;5.61;57.13
46506;BME280;32220;49.808;9.968;2023-04-27T04:29:18;99106.78;;;5.63;57.55
46506;BME280;32220;49.808;9.968;2023-04-27T04:31:46;99098.88;;;5.63;57.97
46506;BME280;32220;49.808;9.968;2023-04-27T04:34:16;99105.81;;;5.65;57.98
46506;BME280;32220;49.808;9.968;2023-04-27T04:36:44;99108.38;;;5.67;57.79
46506;BME280;32220;49.808;9.968;2023-04-27T04:39:12;99104.94;;;5.65;57.57
46506;BME280;32220;49.808;9.968;2023-04-27T04:41:40;99113.38;;;5.73;57.62
46506;BME280;32220;49.808;9.968;2023-04-27T04:44:10;99117.34;;;5.83;57.42
46506;BME280;32220;49.808;9.968;2023-04-27T04:46:38;99114.28;;;5.95;57.28
46506;BME280;32220;49.808;9.968;2023-04-27T04:49:07;99124.28;;;6.07;57.54
46506;BME280;32220;49.808;9.968;2023-04-27T04:51:40;99128.22;;;6.19;57.59
46506;BME280;32220;49.808;9.968;2023-04-27T04:54:09;99111.28;;;6.26;59.29
46506;BME280;32220;49.808;9.968;2023-04-27T04:56:36;99122.94;;;6.41;58.42
46506;BME280;32220;49.808;9.968;2023-04-27T04:59:04;99123.34;;;6.52;58.56
46506;BME280;32220;49.808;9.968;2023-04-27T05:01:32;99125.47;;;6.64;58.72
46506;BME280;32220;49.808;9.968;2023-04-27T05:04:00;99128.50;;;6.75;58.66
46506;BME280;32220;49.808;9.968;2023-04-27T05:06:27;99111.56;;;6.81;59.40
46506;BME280;32220;49.808;9.968;2023-04-27T05:08:56;99131.06;;;6.97;58.91
46506;BME280;32220;49.808;9.968;2023-04-27T05:11:24;99100.50;;;6.93;59.18
46506;BME280;32220;49.808;9.968;2023-04-27T05:13:52;99126.72;;;7.16;59.65
46506;BME280;32220;49.808;9.968;2023-04-27T05:16:19;99119.31;;;7.25;59.75
46506;BME280;32220;49.808;9.968;2023-04-27T05:18:47;99117.41;;;7.28;59.63
46506;BME280;32220;49.808;9.968;2023-04-27T05:21:15;99130.72;;;7.44;59.16
46506;BME280;32220;49.808;9.968;2023-04-27T05:23:45;99130.22;;;7.54;60.03
46506;BME280;32220;49.808;9.968;2023-04-27T05:26:16;99127.19;;;7.64;60.14
46506;BME280;32220;49.808;9.968;2023-04-27T05:28:44;99123.19;;;7.74;59.66
46506;BME280;32220;49.808;9.968;2023-04-27T05:31:14;99121.09;;;7.80;60.41
46506;BME280;32220;49.808;9.968;2023-04-27T05:33:42;99121.56;;;7.90;59.82
46506;BME280;32220;49.808;9.968;2023-04-27T05:36:09;99126.25;;;8.02;59.80
46506;BME280;32220;49.808;9.968;2023-04-27T05:38:37;99125.66;;;8.14;59.16
46506;BME280;32220;49.808;9.968;2023-04-27T05:41:05;99121.63;;;8.24;59.42
46506;BME280;32220;49.808;9.968;2023-04-27T05:43:34;99118.28;;;8.40;59.49
46506;BME280;32220;49.808;9.968;2023-04-27T05:46:03;99119.59;;;8.48;59.29
46506;BME280;32220;49.808;9.968;2023-04-27T05:48:31;99125.66;;;8.68;59.21
46506;BME280;32220;49.808;9.968;2023-04-27T05:50:59;99135.66;;;8.78;59.09
46506;BME280;32220;49.808;9.968;2023-04-27T05:53:28;99130.72;;;8.89;58.77
46506;BME280;32220;49.808;9.968;2023-04-27T05:55:56;99134.41;;;9.02;58.58
46506;BME280;32220;49.808;9.968;2023-04-27T05:58:26;99140.78;;;9.16;58.16
46506;BME280;32220;49.808;9.968;2023-04-27T06:00:55;99147.91;;;9.31;58.16
46506;BME280;32220;49.808;9.968;2023-04-27T06:03:23;99148.81;;;9.47;58.05
46506;BME280;32220;49.808;9.968;2023-04-27T06:05:53;99155.00;;;9.63;57.21
46506;BME280;32220;49.808;9.968;2023-04-27T06:08:21;99162.84;;;9.81;56.95
46506;BME280;32220;49.808;9.968;2023-04-27T06:10:49;99151.28;;;9.99;57.44
46506;BME280;32220;49.808;9.968;2023-04-27T06:13:18;99159.97;;;10.17;56.72
46506;BME280;32220;49.808;9.968;2023-04-27T06:15:46;99169.81;;;10.30;55.61
46506;BME280;32220;49.808;9.968;2023-04-27T06:18:15;99173.31;;;10.47;55.16
46506;BME280;32220;49.808;9.968;2023-04-27T06:20:43;99169.66;;;10.63;54.75
46506;BME280;32220;49.808;9.968;2023-04-27T06:23:12;99171.34;;;10.80;54.94
46506;BME280;32220;49.808;9.968;2023-04-27T06:25:39;99175.75;;;10.95;53.97
46506;BME280;32220;49.808;9.968;2023-04-27T06:28:07;99189.06;;;11.09;53.66
46506;BME280;32220;49.808;9.968;2023-04-27T06:30:34;99186.78;;;11.18;52.44
46506;BME280;32220;49.808;9.968;2023-04-27T06:33:02;99172.41;;;11.22;52.19
46506;BME280;32220;49.808;9.968;2023-04-27T06:35:31;99198.78;;;11.53;51.77
46506;BME280;32220;49.808;9.968;2023-04-27T06:37:59;99181.34;;;11.63;51.75
46506;BME280;32220;49.808;9.968;2023-04-27T06:40:27;99191.22;;;11.90;51.26
46506;BME280;32220;49.808;9.968;2023-04-27T06:42:55;99207.03;;;12.19;50.58
46506;BME280;32220;49.808;9.968;2023-04-27T06:45:22;99199.13;;;12.46;50.69
46506;BME280;32220;49.808;9.968;2023-04-27T06:47:50;99218.78;;;12.71;50.00
46506;BME280;32220;49.808;9.968;2023-04-27T06:50:18;99216.59;;;12.90;49.40
46506;BME280;32220;49.808;9.968;2023-04-27T06:52:47;99217.28;;;13.06;48.61
46506;BME280;32220;49.808;9.968;2023-04-27T06:55:15;99223.72;;;13.16;47.62
46506;BME280;32220;49.808;9.968;2023-04-27T06:57:42;99230.13;;;13.26;47.66
46506;BME280;32220;49.808;9.968;2023-04-27T07:00:11;99239.06;;;13.25;46.64
46506;BME280;32220;49.808;9.968;2023-04-27T07:02:39;99233.13;;;13.35;47.21
46506;BME280;32220;49.808;9.968;2023-04-27T07:05:07;99235.78;;;13.35;46.15
46506;BME280;32220;49.808;9.968;2023-04-27T07:07:35;99233.44;;;13.43;47.00
46506;BME280;32220;49.808;9.968;2023-04-27T07:10:05;99236.66;;;13.86;48.08
46506;BME280;32220;49.808;9.968;2023-04-27T07:12:33;99242.75;;;14.37;47.17
46506;BME280;32220;49.808;9.968;2023-04-27T07:15:01;99247.69;;;14.80;45.31
46506;BME280;32220;49.808;9.968;2023-04-27T07:17:32;99244.44;;;15.11;44.66
46506;BME280;32220;49.808;9.968;2023-04-27T07:20:01;99259.81;;;15.31;43.50
46506;BME280;32220;49.808;9.968;2023-04-27T07:22:31;99248.81;;;15.12;42.42
46506;BME280;32220;49.808;9.968;2023-04-27T07:24:59;99259.56;;;15.34;43.50
46506;BME280;32220;49.808;9.968;2023-04-27T07:27:28;99219.75;;;15.20;41.88
46506;BME280;32220;49.808;9.968;2023-04-27T07:29:56;99271.13;;;15.70;42.09
46506;BME280;32220;49.808;9.968;2023-04-27T07:32:24;99276.84;;;15.76;40.85
46506;BME280;32220;49.808;9.968;2023-04-27T07:34:54;99257.81;;;15.81;42.12
46506;BME280;32220;49.808;9.968;2023-04-27T07:37:22;99278.44;;;15.90;40.83
46506;BME280;32220;49.808;9.968;2023-04-27T07:39:50;99267.16;;;16.09;41.03
46506;BME280;32220;49.808;9.968;2023-04-27T07:42:18;99296.69;;;16.52;38.64
46506;BME280;32220;49.808;9.968;2023-04-27T07:44:48;99286.03;;;17.06;38.92
46506;BME280;32220;49.808;9.968;2023-04-27T07:47:17;99289.50;;;17.82;38.60
46506;BME280;32220;49.808;9.968;2023-04-27T07:49:45;99317.41;;;18.82;35.33
46506;BME280;32220;49.808;9.968;2023-04-27T07:52:13;99305.94;;;19.68;34.58
46506;BME280;32220;49.808;9.968;2023-04-27T07:54:41;99306.63;;;19.99;35.47
46506;BME280;32220;49.808;9.968;2023-04-27T07:57:09;99314.56;;;19.91;32.44
46506;BME280;32220;49.808;9.968;2023-04-27T07:59:37;99308.69;;;20.24;33.30
46506;BME280;32220;49.808;9.968;2023-04-27T08:02:07;99318.47;;;20.72;32.71
46506;BME280;32220;49.808;9.968;2023-04-27T08:04:34;99307.28;;;20.94;33.58
46506;BME280;32220;49.808;9.968;2023-04-27T08:07:02;99318.06;;;21.39;31.23
46506;BME280;32220;49.808;9.968;2023-04-27T08:09:30;99314.66;;;22.34;31.01
46506;BME280;32220;49.808;9.968;2023-04-27T08:11:58;99312.00;;;23.10;31.12
46506;BME280;32220;49.808;9.968;2023-04-27T08:14:27;99308.97;;;23.13;30.37
46506;BME280;32220;49.808;9.968;2023-04-27T08:16:55;99325.00;;;22.73;28.53
46506;BME280;32220;49.808;9.968;2023-04-27T08:19:24;99324.63;;;22.68;30.49
46506;BME280;32220;49.808;9.968;2023-04-27T08:21:52;99316.53;;;22.68;29.36
46506;BME280;32220;49.808;9.968;2023-04-27T08:24:19;99323.91;;;22.57;29.90
46506;BME280;32220;49.808;9.968;2023-04-27T08:26:47;99331.34;;;22.64;29.55
46506;BME280;32220;49.808;9.968;2023-04-27T08:29:15;99325.16;;;23.05;29.69
46506;BME280;32220;49.808;9.968;2023-04-27T08:31:43;99337.09;;;23.45;28.36
46506;BME280;32220;49.808;9.968;2023-04-27T08:34:11;99344.94;;;23.72;27.70
46506;BME280;32220;49.808;9.968;2023-04-27T08:36:40;99338.84;;;23.78;27.51
46506;BME280;32220;49.808;9.968;2023-04-27T08:39:08;99338.84;;;23.94;26.27
46506;BME280;32220;49.808;9.968;2023-04-27T08:41:41;99331.19;;;24.55;26.60
46506;BME280;32220;49.808;9.968;2023-04-27T08:44:09;99334.66;;;24.80;25.85
46506;BME280;32220;49.808;9.968;2023-04-27T08:46:37;99337.81;;;24.36;25.11
46506;BME280;32220;49.808;9.968;2023-04-27T08:49:05;99324.97;;;24.38;26.30
46506;BME280;32220;49.808;9.968;2023-04-27T08:51:33;99340.69;;;24.43;25.54
46506;BME280;32220;49.808;9.968;2023-04-27T08:54:02;99304.25;;;24.61;28.09
46506;BME280;32220;49.808;9.968;2023-04-27T08:56:30;99306.06;;;25.16;27.20
46506;BME280;32220;49.808;9.968;2023-04-27T08:58:59;99315.97;;;25.63;26.27
46506;BME280;32220;49.808;9.968;2023-04-27T09:01:29;99308.28;;;26.27;25.83
46506;BME280;32220;49.808;9.968;2023-04-27T09:03:58;99319.19;;;26.71;25.18
46506;BME280;32220;49.808;9.968;2023-04-27T09:06:30;99320.69;;;27.96;23.56
46506;BME280;32220;49.808;9.968;2023-04-27T09:08:59;99311.34;;;28.89;23.61
46506;BME280;32220;49.808;9.968;2023-04-27T09:11:29;99328.66;;;29.63;21.37
46506;BME280;32220;49.808;9.968;2023-04-27T09:13:59;99329.75;;;30.61;20.08
46506;BME280;32220;49.808;9.968;2023-04-27T09:16:28;99338.03;;;31.06;20.96
46506;BME280;32220;49.808;9.968;2023-04-27T09:18:57;99332.50;;;32.33;19.69
46506;BME280;32220;49.808;9.968;2023-04-27T09:21:26;99339.88;;;34.09;18.06
46506;BME280;32220;49.808;9.968;2023-04-27T09:23:55;99345.50;;;35.31;17.12
46506;BME280;32220;49.808;9.968;2023-04-27T09:26:24;99335.91;;;36.35;16.67
46506;BME280;32220;49.808;9.968;2023-04-27T09:28:56;99348.97;;;36.95;15.54
46506;BME280;32220;49.808;9.968;2023-04-27T09:31:30;99336.38;;;37.04;15.32
46506;BME280;32220;49.808;9.968;2023-04-27T09:34:04;99330.72;;;36.39;15.37
46506;BME280;32220;49.808;9.968;2023-04-27T09:36:32;99326.50;;;36.03;16.08
46506;BME280;32220;49.808;9.968;2023-04-27T09:39:04;99317.06;;;35.70;16.49
46506;BME280;32220;49.808;9.968;2023-04-27T09:41:32;99317.06;;;34.90;15.84
46506;BME280;32220;49.808;9.968;2023-04-27T09:44:01;99295.72;;;33.80;16.97
46506;BME280;32220;49.808;9.968;2023-04-27T09:46:32;99310.50;;;32.83;16.80
46506;BME280;32220;49.808;9.968;2023-04-27T09:49:03;99273.63;;;32.11;17.98
46506;BME280;32220;49.808;9.968;2023-04-27T09:51:32;99280.44;;;32.52;19.02
46506;BME280;32220;49.808;9.968;2023-04-27T09:54:08;99293.97;;;32.71;17.94
46506;BME280;32220;49.808;9.968;2023-04-27T09:56:49;99275.00;;;32.45;19.13
46506;BME280;32220;49.808;9.968;2023-04-27T09:59:35;99289.13;;;31.67;18.94
46506;BME280;32220;49.808;9.968;2023-04-27T10:02:16;99283.59;;;30.91;19.53
46506;BME280;32220;49.808;9.968;2023-04-27T10:04:56;99256.59;;;30.30;20.65
46506;BME280;32220;49.808;9.968;2023-04-27T10:07:34;99249.69;;;29.82;21.21
46506;BME280;32220;49.808;9.968;2023-04-27T10:10:02;99257.25;;;29.53;20.71
46506;BME280;32220;49.808;9.968;2023-04-27T10:12:33;99256.38;;;29.46;20.62
46506;BME280;32220;49.808;9.968;2023-04-27T10:15:13;99250.63;;;29.15;22.44
46506;BME280;32220;49.808;9.968;2023-04-27T10:17:46;99259.09;;;28.85;20.93
46506;BME280;32220;49.808;9.968;2023-04-27T10:20:15;99246.81;;;28.27;22.53
46506;BME280;32220;49.808;9.968;2023-04-27T10:22:44;99233.88;;;27.80;23.60
46506;BME280;32220;49.808;9.968;2023-04-27T10:25:15;99246.16;;;27.33;23.00
46506;BME280;32220;49.808;9.968;2023-04-27T10:27:47;99235.41;;;27.04;23.54
46506;BME280;32220;49.808;9.968;2023-04-27T10:30:18;99246.00;;;26.84;22.60
46506;BME280;32220;49.808;9.968;2023-04-27T10:32:50;99245.94;;;26.63;22.82
46506;BME280;32220;49.808;9.968;2023-04-27T10:35:19;99231.44;;;26.70;23.22
46506;BME280;32220;49.808;9.968;2023-04-27T10:37:48;99244.34;;;26.68;22.90
46506;BME280;32220;49.808;9.968;2023-04-27T10:40:17;99235.50;;;26.45;23.13
46506;BME280;32220;49.808;9.968;2023-04-27T10:42:45;99230.13;;;27.17;22.86
46506;BME280;32220;49.808;9.968;2023-04-27T10:45:27;99233.41;;;28.26;21.78
46506;BME280;32220;49.808;9.968;2023-04-27T10:51:50;99235.72;;;32.08;19.54
46506;BME280;32220;49.808;9.968;2023-04-27T10:54:17;99245.09;;;33.58;17.75
46506;BME280;32220;49.808;9.968;2023-04-27T10:56:45;99269.84;;;34.23;15.98
46506;BME280;32220;49.808;9.968;2023-04-27T10:59:12;99261.97;;;34.38;15.97
46506;BME280;32220;49.808;9.968;2023-04-27T11:01:41;99259.34;;;34.43;16.65
46506;BME280;32220;49.808;9.968;2023-04-27T11:04:08;99249.13;;;34.79;16.90
46506;BME280;32220;49.808;9.968;2023-04-27T11:06:43;99239.84;;;35.37;17.13
46506;BME280;32220;49.808;9.968;2023-04-27T11:09:12;99271.16;;;35.76;14.47
46506;BME280;32220;49.808;9.968;2023-04-27T11:11:43;99251.69;;;35.37;16.08
46506;BME280;32220;49.808;9.968;2023-04-27T11:14:14;99250.72;;;33.63;16.33
46506;BME280;32220;49.808;9.968;2023-04-27T11:16:47;99252.91;;;33.31;16.63
46506;BME280;32220;49.808;9.968;2023-04-27T11:19:15;99246.91;;;33.64;16.72
46506;BME280;32220;49.808;9.968;2023-04-27T11:21:42;99258.00;;;34.11;15.95
46506;BME280;32220;49.808;9.968;2023-04-27T11:24:10;99244.59;;;34.03;16.47
46506;BME280;32220;49.808;9.968;2023-04-27T11:26:37;99255.94;;;33.53;16.19
46506;BME280;32220;49.808;9.968;2023-04-27T11:29:14;99239.34;;;33.48;17.52
46506;BME280;32220;49.808;9.968;2023-04-27T11:31:43;99239.13;;;33.49;16.70
46506;BME280;32220;49.808;9.968;2023-04-27T12:11:41;99225.47;;;34.54;15.86
46506;BME280;32220;49.808;9.968;2023-04-27T12:18:41;99226.16;;;33.38;16.07
46506;BME280;32220;49.808;9.968;2023-04-27T12:21:09;99202.91;;;33.52;17.19
46506;BME280;32220;49.808;9.968;2023-04-27T12:23:36;99213.88;;;33.41;16.67
46506;BME280;32220;49.808;9.968;2023-04-27T12:26:07;99215.53;;;32.45;17.09
46506;BME280;32220;49.808;9.968;2023-04-27T12:28:40;99208.44;;;31.95;18.09
46506;BME280;32220;49.808;9.968;2023-04-27T12:31:12;99202.13;;;32.37;18.24
46506;BME280;32220;49.808;9.968;2023-04-27T12:33:40;99222.75;;;32.76;16.22
46506;BME280;32220;49.808;9.968;2023-04-27T12:36:08;99201.28;;;33.22;17.34
46506;BME280;32220;49.808;9.968;2023-04-27T12:38:35;99210.22;;;32.87;16.67
46506;BME280;32220;49.808;9.968;2023-04-27T12:41:03;99213.25;;;32.24;16.50
46506;BME280;32220;49.808;9.968;2023-04-27T12:43:30;99200.66;;;32.90;17.08
46506;BME280;32220;49.808;9.968;2023-04-27T12:46:00;99192.59;;;33.78;16.73
46506;BME280;32220;49.808;9.968;2023-04-27T12:48:28;99193.94;;;34.22;16.47
46506;BME280;32220;49.808;9.968;2023-04-27T12:50:55;99194.69;;;34.69;15.70
46506;BME280;32220;49.808;9.968;2023-04-27T12:53:23;99199.13;;;35.10;15.84
46506;BME280;32220;49.808;9.968;2023-04-27T12:55:51;99194.91;;;35.48;15.53
46506;BME280;32220;49.808;9.968;2023-04-27T12:58:18;99205.00;;;35.02;15.26
46506;BME280;32220;49.808;9.968;2023-04-27T13:00:46;99197.84;;;35.01;15.72
46506;BME280;32220;49.808;9.968;2023-04-27T13:03:15;99198.94;;;35.28;15.76
46506;BME280;32220;49.808;9.968;2023-04-27T13:05:43;99187.91;;;35.00;15.81
46506;BME280;32220;49.808;9.968;2023-04-27T13:08:11;99199.22;;;35.15;15.88
46506;BME280;32220;49.808;9.968;2023-04-27T13:10:39;99185.13;;;35.57;16.11
46506;BME280;32220;49.808;9.968;2023-04-27T13:13:07;99182.81;;;35.82;15.44
46506;BME280;32220;49.808;9.968;2023-04-27T13:15:35;99194.22;;;34.84;16.06
46506;BME280;32220;49.808;9.968;2023-04-27T13:18:03;99192.75;;;33.41;15.93
46506;BME280;32220;49.808;9.968;2023-04-27T13:20:33;99168.13;;;32.02;16.94
46506;BME280;32220;49.808;9.968;2023-04-27T13:23:03;99175.06;;;31.80;17.87
46506;BME280;32220;49.808;9.968;2023-04-27T13:25:31;99160.94;;;32.92;17.68
46506;BME280;32220;49.808;9.968;2023-04-27T13:27:59;99169.78;;;33.77;16.88
46506;BME280;32220;49.808;9.968;2023-04-27T13:30:27;99165.19;;;33.48;16.34
46506;BME280;32220;49.808;9.968;2023-04-27T13:32:54;99174.25;;;33.37;16.08
46506;BME280;32220;49.808;9.968;2023-04-27T13:35:22;99158.75;;;33.54;15.56
46506;BME280;32220;49.808;9.968;2023-04-27T13:37:51;99161.78;;;34.34;16.47
46506;BME280;32220;49.808;9.968;2023-04-27T13:40:19;99169.22;;;34.74;15.54
46506;BME280;32220;49.808;9.968;2023-04-27T13:42:47;99173.53;;;34.70;15.19
46506;BME280;32220;49.808;9.968;2023-04-27T13:45:15;99164.28;;;34.24;15.59
46506;BME280;32220;49.808;9.968;2023-04-27T13:47:42;99150.22;;;33.85;15.95
46506;BME280;32220;49.808;9.968;2023-04-27T13:50:10;99150.69;;;33.94;16.86
46506;BME280;32220;49.808;9.968;2023-04-27T13:52:38;99155.19;;;33.88;16.32
46506;BME280;32220;49.808;9.968;2023-04-27T13:55:10;99153.84;;;33.68;16.33
46506;BME280;32220;49.808;9.968;2023-04-27T13:57:38;99141.03;;;33.27;17.16
46506;BME280;32220;49.808;9.968;2023-04-27T14:00:06;99141.34;;;33.18;16.89